»·PEaware :: FDX1187 KLAX-KSLC

FDX1187 :: KLAX-KSLC

FLIGHT INFORMATION

Flight Status: Arrived
Operator:
Federal Express
More flights by this operator :: More flights under this callsign
Pilot: Anonymous 12254 (12254)
Aircraft: BOEING 767-300
(B763)
More flights by this aircraft type
Origin: KLAX Los Angeles Intl
United States
Destination: KSLC Salt Lake City Intl
United States
More flights between these airports :: More routes between these airports
Route: +OSHNN8 BEALE Q842 WINEN MLF DELTA5
File this flight plan on PilotEdge
Remarks:
Altitude:
(Current/Filed)
35,000ft
Speed:
(Current/Filed)
450kts
Departed: 04-Jul-19 10:18 AM
Arrived: 04-Jul-19 11:50 AM
Distance/Time
Traveled:
513nm/1:31
Distance/Time
To Go:
Arrived

Flight Plot

Page will automatically refresh every two minutes.

Flight plan parsing failed; only flown route is shown


Map Options




Map Legend


Flown Route
Filed Route
Departure Airport
Arrival Airport
Navaid (VOR, NDB)
Fix

Horizontal Profiles

Position Reports

Time Latitude Longitude Heading Altitude Ground
Speed
04-Jul-19 09:57 33.933989 -118.388363 172 108ft 0kts
04-Jul-19 09:58 33.933989 -118.388363 172 108ft 0kts
04-Jul-19 09:59 33.933989 -118.388363 172 108ft 0kts
04-Jul-19 10:00 33.933989 -118.388363 172 108ft 0kts
04-Jul-19 10:01 33.933989 -118.388363 172 108ft 0kts
04-Jul-19 10:02 33.933989 -118.388363 172 108ft 0kts
04-Jul-19 10:03 33.933989 -118.388363 172 108ft 0kts
04-Jul-19 10:04 33.933989 -118.388363 172 108ft 0kts
04-Jul-19 10:05 33.933989 -118.388363 172 108ft 0kts
04-Jul-19 10:06 33.933989 -118.388363 172 108ft 0kts
04-Jul-19 10:07 33.933989 -118.388363 172 108ft 0kts
04-Jul-19 10:08 33.933989 -118.388363 172 108ft 0kts
04-Jul-19 10:09 33.933989 -118.388363 172 108ft 0kts
04-Jul-19 10:10 33.933989 -118.388363 172 108ft 0kts
04-Jul-19 10:11 33.933982 -118.388362 172 108ft 1kts
04-Jul-19 10:12 33.934042 -118.388003 42 107ft 11kts
04-Jul-19 10:13 33.934387 -118.387872 2 107ft 0kts
04-Jul-19 10:14 33.934572 -118.387864 1 107ft 4kts
04-Jul-19 10:15 33.935807 -118.386074 82 107ft 12kts
04-Jul-19 10:16 33.936447 -118.382862 15 103ft 2kts
04-Jul-19 10:17 33.935702 -118.399392 262 119ft 144kts
04-Jul-19 10:18 33.926509 -118.469708 238 566ft 242kts
04-Jul-19 10:19 33.885027 -118.527713 229 2574ft 222kts
04-Jul-19 10:20 33.832831 -118.556609 168 4315ft 234kts
04-Jul-19 10:22 33.764666 -118.538956 168 5909ft 267kts
04-Jul-19 10:23 33.696104 -118.507099 124 7955ft 280kts
04-Jul-19 10:24 33.666027 -118.415008 111 10059ft 298kts
04-Jul-19 10:25 33.644919 -118.315799 90 12254ft 306kts
04-Jul-19 10:26 33.644658 -118.212417 87 14545ft 305kts
04-Jul-19 10:27 33.693154 -118.137139 35 16563ft 285kts
04-Jul-19 10:28 33.758222 -118.077938 34 17984ft 292kts
04-Jul-19 10:29 33.824748 -118.018147 33 19371ft 299kts
04-Jul-19 10:30 33.893362 -117.956396 33 20654ft 308kts
04-Jul-19 10:31 33.963415 -117.892576 34 21948ft 313kts
04-Jul-19 10:32 34.034273 -117.827745 33 23158ft 317kts
04-Jul-19 10:33 34.102368 -117.757886 48 24193ft 327kts
04-Jul-19 10:34 34.161195 -117.670945 48 25197ft 332kts
04-Jul-19 10:35 34.220587 -117.582715 48 26137ft 337kts
04-Jul-19 10:36 34.280955 -117.492784 48 27050ft 341kts
04-Jul-19 10:37 34.342175 -117.401365 48 27877ft 347kts
04-Jul-19 10:38 34.403037 -117.310230 48 28680ft 351kts
04-Jul-19 10:39 34.465880 -117.215890 48 29435ft 355kts
04-Jul-19 10:40 34.529732 -117.119774 48 30159ft 359kts
04-Jul-19 10:40 34.583884 -117.040365 47 30683ft 361kts
04-Jul-19 10:42 34.661042 -116.927878 48 31292ft 366kts
04-Jul-19 10:42 34.716716 -116.846469 48 31672ft 367kts
04-Jul-19 10:43 34.782851 -116.749532 48 31956ft 368kts
04-Jul-19 10:45 34.858170 -116.639156 45 33101ft 344kts
04-Jul-19 10:45 34.913936 -116.564929 45 32717ft 373kts
04-Jul-19 10:46 34.987192 -116.466903 45 33138ft 391kts
04-Jul-19 10:48 35.075628 -116.348192 45 33992ft 400kts
04-Jul-19 10:48 35.139023 -116.262848 45 34563ft 402kts
04-Jul-19 10:49 35.216062 -116.158850 45 34990ft 410kts
04-Jul-19 10:50 35.296293 -116.050206 45 35009ft 432kts
04-Jul-19 10:51 35.380298 -115.936072 46 35011ft 460kts
04-Jul-19 10:52 35.470252 -115.813433 46 35008ft 489kts
04-Jul-19 10:53 35.557589 -115.693899 46 34995ft 456kts
04-Jul-19 10:54 35.643851 -115.575451 46 34995ft 455kts
04-Jul-19 10:55 35.729518 -115.457393 46 35000ft 455kts
04-Jul-19 10:56 35.815172 -115.338917 46 34997ft 456kts
04-Jul-19 10:57 35.900343 -115.220702 46 34992ft 456kts
04-Jul-19 10:58 35.986167 -115.101177 47 34986ft 455kts
04-Jul-19 10:59 36.071530 -114.981848 47 34963ft 453kts
04-Jul-19 11:00 36.154954 -114.864798 48 34950ft 452kts
04-Jul-19 11:01 36.256690 -114.771703 29 34949ft 450kts
04-Jul-19 11:02 36.365980 -114.690492 28 34943ft 449kts
04-Jul-19 11:03 36.475032 -114.609503 28 34943ft 451kts
04-Jul-19 11:04 36.585099 -114.527502 28 34943ft 451kts
04-Jul-19 11:05 36.694430 -114.445776 28 34951ft 450kts
04-Jul-19 11:06 36.803349 -114.364085 28 34977ft 450kts
04-Jul-19 11:07 36.912087 -114.282269 29 34997ft 451kts
04-Jul-19 11:08 37.021503 -114.199650 29 35014ft 454kts
04-Jul-19 11:09 37.131829 -114.116056 28 35008ft 462kts
04-Jul-19 11:10 37.244320 -114.030539 28 35009ft 465kts
04-Jul-19 11:11 37.355907 -113.945405 28 35012ft 465kts
04-Jul-19 11:12 37.467672 -113.859827 28 35004ft 465kts
04-Jul-19 11:13 37.579859 -113.773618 28 35006ft 465kts
04-Jul-19 11:14 37.692232 -113.686970 28 35098ft 465kts
04-Jul-19 11:15 37.806032 -113.598895 28 35155ft 465kts
04-Jul-19 11:16 37.918592 -113.511273 31 35156ft 466kts
04-Jul-19 11:17 38.019895 -113.401796 39 35157ft 468kts
04-Jul-19 11:18 38.118376 -113.290032 40 35138ft 468kts
04-Jul-19 11:19 38.216327 -113.178298 40 35107ft 468kts
04-Jul-19 11:20 38.315493 -113.064732 40 35102ft 468kts
04-Jul-19 11:21 38.427717 -112.980256 18 35108ft 462kts
04-Jul-19 11:22 38.547911 -112.915909 20 35106ft 461kts
04-Jul-19 11:23 38.667251 -112.850492 20 35106ft 460kts
04-Jul-19 11:24 38.787351 -112.784347 20 35108ft 460kts
04-Jul-19 11:25 38.906573 -112.718429 20 34985ft 464kts
04-Jul-19 11:26 39.028927 -112.650531 20 33707ft 475kts
04-Jul-19 11:27 39.150871 -112.582602 20 32139ft 462kts
04-Jul-19 11:28 39.268367 -112.516914 20 29955ft 444kts
04-Jul-19 11:29 39.386411 -112.476031 16 27424ft 424kts
04-Jul-19 11:30 39.491458 -112.408746 23 24942ft 407kts
04-Jul-19 11:31 39.593766 -112.346925 23 22398ft 388kts
04-Jul-19 11:32 39.690846 -112.288510 24 19936ft 368kts
04-Jul-19 11:33 39.783433 -112.232647 24 18063ft 353kts
04-Jul-19 11:34 39.873970 -112.177861 24 17125ft 347kts
04-Jul-19 11:35 39.967067 -112.153275 336 17152ft 341kts
04-Jul-19 11:36 40.039036 -112.231538 331 17149ft 336kts
04-Jul-19 11:37 40.134462 -112.226562 12 17120ft 347kts
04-Jul-19 11:38 40.229587 -112.194738 13 15417ft 336kts
04-Jul-19 11:39 40.319357 -112.164206 13 14121ft 324kts
04-Jul-19 11:40 40.408419 -112.133849 13 13397ft 324kts
04-Jul-19 11:41 40.496754 -112.103717 13 13008ft 325kts
04-Jul-19 11:42 40.584669 -112.081625 1 11642ft 312kts
04-Jul-19 11:43 40.670460 -112.082511 353 11022ft 303kts
04-Jul-19 11:44 40.753707 -112.090500 357 9801ft 314kts
04-Jul-19 11:45 40.836735 -112.088373 1 8685ft 282kts
04-Jul-19 11:46 40.905376 -112.055110 62 7158ft 273kts
04-Jul-19 11:47 40.881519 -111.991352 198 6209ft 245kts
04-Jul-19 11:48 40.817969 -112.000357 176 4497ft 196kts
04-Jul-19 11:49 40.785011 -111.995919 138 4227ft 12kts
04-Jul-19 11:50 40.784319 -111.994983 133 4227ft 0kts
04-Jul-19 11:51 40.785789 -111.993569 355 4227ft 20kts
04-Jul-19 11:52 40.790761 -111.994147 354 4227ft 13kts
04-Jul-19 11:53 40.792008 -111.989760 84 4227ft 17kts
04-Jul-19 11:54 40.792546 -111.981822 84 4224ft 25kts
04-Jul-19 11:55 40.795978 -111.978747 354 4227ft 14kts

Navigation Log

Ident Type
Flight plan parsing failed, navigation log unavailable